Time;durP1;ratioP1;P1;durP2;ratioP2;P2;SDS_P1;SDS_P2;PMS_P1;PMS_P2;Temp;Humidity;BMP_temperature;BMP_pressure;BME280_temperature;BME280_humidity;BME280_pressure;Samples;Min_cycle;Max_cycle;Signal;HPM_P1;HPM_P2
2021/07/23 00:00:15;;;;;;;19.30;11.83;;;16.90;99.90;;;;;;5007858;28;20442;-54
2021/07/23 00:02:40;;;;;;;14.80;10.90;;;16.90;99.90;;;;;;5005026;28;20438;-53
2021/07/23 00:05:07;;;;;;;18.77;11.60;;;16.90;99.90;;;;;;5004145;28;20431;-54
2021/07/23 00:07:32;;;;;;;20.67;10.37;;;16.90;99.90;;;;;;5010476;28;20661;-54
2021/07/23 00:09:58;;;;;;;22.63;11.50;;;16.80;99.90;;;;;;5004261;28;20469;-54
2021/07/23 00:12:23;;;;;;;16.60;11.30;;;16.80;99.90;;;;;;5006047;28;20176;-53
2021/07/23 00:14:49;;;;;;;18.77;12.70;;;16.80;99.90;;;;;;5005711;28;20692;-53
2021/07/23 00:17:14;;;;;;;17.70;11.00;;;16.70;99.90;;;;;;5004575;28;20177;-53
2021/07/23 00:19:40;;;;;;;18.70;11.77;;;16.70;99.90;;;;;;5004950;28;20220;-56
2021/07/23 00:22:14;;;;;;;20.60;11.73;;;16.70;99.90;;;;;;5006618;28;20208;-53
2021/07/23 00:24:39;;;;;;;22.67;11.67;;;16.70;99.90;;;;;;5005162;28;20599;-52
2021/07/23 00:27:05;;;;;;;18.70;10.40;;;16.60;99.90;;;;;;5002217;28;20466;-54
2021/07/23 00:29:35;;;;;;;20.20;12.00;;;16.60;99.90;;;;;;5011021;28;20243;-52
2021/07/23 00:32:01;;;;;;;16.30;11.57;;;16.60;99.90;;;;;;5007308;28;20255;-53
2021/07/23 00:34:27;;;;;;;16.10;12.00;;;16.50;99.90;;;;;;5005969;28;20998;-56
2021/07/23 00:36:55;;;;;;;17.20;11.97;;;16.50;99.90;;;;;;5005317;28;20245;-54
2021/07/23 00:39:21;;;;;;;17.90;11.33;;;16.50;99.90;;;;;;5005717;28;20212;-53
2021/07/23 00:41:46;;;;;;;22.60;11.07;;;16.50;99.90;;;;;;5003813;28;20438;-53
2021/07/23 00:44:12;;;;;;;25.27;11.80;;;16.40;99.90;;;;;;5005291;28;20173;-54
2021/07/23 00:46:41;;;;;;;17.13;12.00;;;16.40;99.90;;;;;;5004558;28;20226;-53
2021/07/23 00:49:10;;;;;;;17.90;11.27;;;16.30;99.90;;;;;;5007852;28;20180;-54
2021/07/23 00:51:39;;;;;;;18.57;11.10;;;16.30;99.90;;;;;;5003231;28;20458;-53
2021/07/23 00:54:10;;;;;;;19.70;11.87;;;16.30;99.90;;;;;;5006521;28;20459;-54
2021/07/23 00:56:36;;;;;;;21.13;11.00;;;16.20;99.90;;;;;;5006700;28;20449;-53
2021/07/23 00:59:02;;;;;;;16.03;11.50;;;16.20;99.90;;;;;;5009088;28;20459;-55
2021/07/23 01:01:32;;;;;;;17.40;11.90;;;16.20;99.90;;;;;;5000725;28;20527;-54
2021/07/23 01:03:58;;;;;;;18.23;11.87;;;16.20;99.90;;;;;;5007384;28;20176;-53
2021/07/23 01:06:24;;;;;;;18.77;11.83;;;16.10;99.90;;;;;;5006263;28;20429;-53
2021/07/23 01:08:50;;;;;;;18.27;12.40;;;16.10;99.90;;;;;;5004406;28;20432;-54
2021/07/23 01:11:16;;;;;;;18.80;12.30;;;16.10;99.90;;;;;;5001666;28;20518;-53
2021/07/23 01:13:45;;;;;;;23.40;11.63;;;16.10;99.90;;;;;;5003874;28;20986;-52
2021/07/23 01:16:11;;;;;;;18.30;12.20;;;16.00;99.90;;;;;;5000566;28;20176;-53
2021/07/23 01:18:37;;;;;;;19.13;12.00;;;16.00;99.90;;;;;;5002627;28;20470;-56
2021/07/23 01:21:03;;;;;;;21.07;12.87;;;16.00;99.90;;;;;;5011326;28;20443;-56
2021/07/23 01:23:36;;;;;;;20.87;12.43;;;15.90;99.90;;;;;;5022978;28;20532;-56
2021/07/23 01:26:04;;;;;;;17.73;11.70;;;15.90;99.90;;;;;;5027383;28;20415;-56
2021/07/23 01:28:35;;;;;;;18.20;11.60;;;15.90;99.90;;;;;;5020662;28;21078;-57
2021/07/23 01:31:04;;;;;;;18.80;12.00;;;15.90;99.90;;;;;;5011713;28;20486;-54
2021/07/23 01:33:31;;;;;;;21.80;12.70;;;15.80;99.90;;;;;;5010470;28;20514;-54
2021/07/23 01:36:00;;;;;;;19.33;13.10;;;15.80;99.90;;;;;;5006476;28;20449;-58
2021/07/23 01:38:28;;;;;;;20.20;12.40;;;15.80;99.90;;;;;;5006092;28;20518;-56
2021/07/23 01:40:55;;;;;;;18.30;11.73;;;15.80;99.90;;;;;;5002896;28;20451;-54
2021/07/23 01:43:22;;;;;;;18.90;11.97;;;15.70;99.90;;;;;;5004533;28;20435;-54
2021/07/23 01:45:53;;;;;;;16.60;10.73;;;15.70;99.90;;;;;;5009087;28;20431;-54
2021/07/23 01:48:19;;;;;;;16.03;11.10;;;15.60;99.90;;;;;;5010358;28;20929;-53
2021/07/23 01:50:45;;;;;;;17.63;12.20;;;15.60;99.90;;;;;;5009972;28;20762;-54
2021/07/23 01:53:11;;;;;;;19.63;11.67;;;15.60;99.90;;;;;;5004140;28;20461;-52
2021/07/23 01:55:36;;;;;;;17.83;11.80;;;15.60;99.90;;;;;;5003925;28;20259;-55
2021/07/23 01:58:05;;;;;;;21.20;12.60;;;15.50;99.90;;;;;;5005132;28;20196;-56
2021/07/23 02:00:34;;;;;;;17.83;12.03;;;15.50;99.90;;;;;;5003314;28;20276;-53
2021/07/23 02:02:59;;;;;;;18.17;12.03;;;15.50;99.90;;;;;;5004850;28;20428;-53
2021/07/23 02:05:25;;;;;;;22.30;13.60;;;15.40;99.90;;;;;;5003232;28;20429;-53
2021/07/23 02:07:53;;;;;;;15.30;11.00;;;15.40;99.90;;;;;;5005835;28;20532;-54
2021/07/23 02:10:22;;;;;;;21.30;12.40;;;15.40;99.90;;;;;;5004350;28;20204;-53
2021/07/23 02:12:47;;;;;;;22.30;12.00;;;15.40;99.90;;;;;;5004057;28;20800;-52
2021/07/23 02:15:13;;;;;;;20.33;12.43;;;15.40;99.90;;;;;;5003360;28;20507;-55
2021/07/23 02:17:39;;;;;;;18.60;12.63;;;15.30;99.90;;;;;;5004503;28;20584;-54
2021/07/23 02:20:05;;;;;;;17.53;12.70;;;15.30;99.90;;;;;;5003764;28;20196;-54
2021/07/23 02:22:33;;;;;;;20.80;13.10;;;15.30;99.90;;;;;;5001897;28;20206;-53
2021/07/23 02:24:59;;;;;;;17.17;11.70;;;15.30;99.90;;;;;;5004012;28;20431;-54
2021/07/23 02:27:24;;;;;;;19.00;12.77;;;15.20;99.90;;;;;;5003550;28;20493;-53
2021/07/23 02:29:50;;;;;;;25.10;13.13;;;15.20;99.90;;;;;;5001153;28;20711;-54
2021/07/23 02:32:16;;;;;;;21.10;12.83;;;15.20;99.90;;;;;;4999574;28;20216;-53
2021/07/23 02:34:44;;;;;;;19.40;12.83;;;15.20;99.90;;;;;;5005280;28;20662;-53
2021/07/23 02:37:10;;;;;;;23.40;12.57;;;15.10;99.90;;;;;;4998971;28;20228;-55
2021/07/23 02:39:35;;;;;;;20.57;12.87;;;15.10;99.90;;;;;;5001850;28;20475;-55
2021/07/23 02:42:01;;;;;;;24.40;13.17;;;15.10;99.90;;;;;;5017949;28;20267;-53
2021/07/23 02:44:26;;;;;;;23.23;13.23;;;15.10;99.90;;;;;;5002776;28;20652;-51
2021/07/23 02:46:52;;;;;;;19.03;12.50;;;15.00;99.90;;;;;;5007961;28;20543;-54
2021/07/23 02:49:18;;;;;;;23.67;11.97;;;15.00;99.90;;;;;;5004120;28;20260;-54
2021/07/23 02:51:43;;;;;;;18.60;11.80;;;15.00;99.90;;;;;;5003457;28;20196;-53
2021/07/23 02:54:09;;;;;;;21.83;12.70;;;14.90;99.90;;;;;;5003762;28;20180;-55
2021/07/23 02:56:34;;;;;;;22.53;13.00;;;14.90;99.90;;;;;;5003279;28;20711;-53
2021/07/23 02:59:00;;;;;;;18.00;11.77;;;14.90;99.90;;;;;;5003817;28;20196;-53
2021/07/23 03:01:26;;;;;;;19.63;12.57;;;14.90;99.90;;;;;;5002987;28;20191;-54
2021/07/23 03:03:51;;;;;;;19.60;12.27;;;14.90;99.90;;;;;;5003265;28;20235;-52
2021/07/23 03:06:17;;;;;;;18.77;11.90;;;14.80;99.90;;;;;;5004712;28;20195;-54
2021/07/23 03:08:43;;;;;;;18.17;12.20;;;14.80;99.90;;;;;;5005108;28;20193;-57
2021/07/23 03:11:08;;;;;;;20.20;12.30;;;14.80;99.90;;;;;;5002831;28;20861;-52
2021/07/23 03:13:34;;;;;;;21.20;12.93;;;14.80;99.90;;;;;;5004052;28;20193;-55
2021/07/23 03:16:00;;;;;;;18.17;12.30;;;14.80;99.90;;;;;;5006910;28;20274;-54
2021/07/23 03:18:25;;;;;;;20.83;12.70;;;14.70;99.90;;;;;;5007190;28;20585;-54
2021/07/23 03:20:51;;;;;;;19.00;13.20;;;14.70;99.90;;;;;;5006492;28;20326;-53
2021/07/23 03:23:17;;;;;;;18.60;13.20;;;14.70;99.90;;;;;;5007922;28;20180;-55
2021/07/23 03:25:42;;;;;;;17.03;12.40;;;14.70;99.90;;;;;;5008040;28;20267;-52
2021/07/23 03:28:08;;;;;;;21.60;12.20;;;14.70;99.90;;;;;;5008010;28;20185;-53
2021/07/23 03:30:34;;;;;;;26.03;13.70;;;14.70;99.90;;;;;;5007009;28;20243;-54
2021/07/23 03:33:00;;;;;;;21.10;12.13;;;14.60;99.90;;;;;;5007417;28;20188;-53
2021/07/23 03:35:27;;;;;;;21.33;12.40;;;14.60;99.90;;;;;;5005079;28;20192;-56
2021/07/23 03:37:52;;;;;;;21.03;13.30;;;14.60;99.90;;;;;;5006004;28;21067;-52
2021/07/23 03:40:18;;;;;;;24.60;12.80;;;14.60;99.90;;;;;;5005442;28;20522;-53
2021/07/23 03:42:44;;;;;;;19.03;11.83;;;14.50;99.90;;;;;;5009637;28;20184;-53
2021/07/23 03:45:10;;;;;;;20.27;13.20;;;14.50;99.90;;;;;;5006929;28;20172;-52
2021/07/23 03:47:35;;;;;;;22.40;12.97;;;14.50;99.90;;;;;;5005362;28;20180;-55
2021/07/23 03:50:01;;;;;;;19.87;12.67;;;14.50;99.90;;;;;;5005672;28;20235;-55
2021/07/23 03:52:26;;;;;;;19.13;12.00;;;14.50;99.90;;;;;;5011583;28;20180;-54
2021/07/23 03:54:55;;;;;;;18.83;13.13;;;14.50;99.90;;;;;;5010584;28;20180;-52
2021/07/23 03:57:21;;;;;;;19.00;12.60;;;14.50;99.90;;;;;;5001431;28;20231;-56
2021/07/23 03:59:46;;;;;;;20.80;12.00;;;14.50;99.90;;;;;;5004770;28;20474;-53
2021/07/23 04:02:12;;;;;;;20.33;13.13;;;14.50;99.90;;;;;;5004341;28;20260;-56
2021/07/23 04:04:38;;;;;;;23.83;11.73;;;14.50;99.90;;;;;;5013011;28;20199;-54
2021/07/23 04:07:04;;;;;;;22.10;13.33;;;14.50;99.90;;;;;;5000272;28;20183;-54
2021/07/23 04:09:30;;;;;;;22.00;13.17;;;14.40;99.90;;;;;;4998026;28;20451;-56
2021/07/23 04:11:56;;;;;;;19.97;12.63;;;14.40;99.90;;;;;;4993973;28;20463;-57
2021/07/23 04:14:22;;;;;;;23.60;13.40;;;14.40;99.90;;;;;;5000072;28;20535;-55
2021/07/23 04:16:49;;;;;;;19.47;12.10;;;14.40;99.90;;;;;;5002715;28;20227;-55
2021/07/23 04:19:15;;;;;;;18.47;11.67;;;14.40;99.90;;;;;;4998334;28;20600;-57
2021/07/23 04:21:41;;;;;;;18.23;12.50;;;14.40;99.90;;;;;;5003097;28;20931;-56
2021/07/23 04:24:07;;;;;;;21.70;14.53;;;14.40;99.90;;;;;;5004028;28;20439;-56
2021/07/23 04:26:33;;;;;;;18.97;12.93;;;14.40;99.90;;;;;;5006355;28;20176;-58
2021/07/23 04:28:59;;;;;;;18.10;12.57;;;14.40;99.90;;;;;;5002455;28;20712;-54
2021/07/23 04:31:25;;;;;;;23.50;13.57;;;14.40;99.90;;;;;;5000429;28;20580;-55
2021/07/23 04:33:51;;;;;;;22.50;14.80;;;14.40;99.90;;;;;;5002980;28;20784;-57
2021/07/23 04:36:16;;;;;;;22.23;14.50;;;14.40;99.90;;;;;;5002571;28;20188;-54
2021/07/23 04:38:42;;;;;;;23.87;13.33;;;14.30;99.90;;;;;;5005528;28;20266;-58
2021/07/23 04:41:08;;;;;;;19.77;13.87;;;14.40;99.90;;;;;;5004353;28;20711;-56
2021/07/23 04:43:38;;;;;;;21.03;12.90;;;14.40;99.90;;;;;;5000123;28;20185;-57
2021/07/23 04:46:04;;;;;;;22.43;13.70;;;14.40;99.90;;;;;;4999903;28;20200;-58
2021/07/23 04:48:30;;;;;;;22.33;13.17;;;14.40;99.90;;;;;;5004391;28;20806;-56
2021/07/23 04:51:00;;;;;;;19.47;13.50;;;14.50;99.90;;;;;;5004659;28;20959;-57
2021/07/23 04:53:25;;;;;;;28.43;13.13;;;14.50;99.90;;;;;;5006410;28;20474;-59
2021/07/23 04:55:53;;;;;;;25.90;13.03;;;14.50;99.90;;;;;;5007160;28;20470;-59
2021/07/23 04:58:19;;;;;;;20.57;13.17;;;14.50;99.90;;;;;;5010525;28;20740;-57
2021/07/23 05:00:45;;;;;;;20.40;11.90;;;14.60;99.90;;;;;;5010462;28;20523;-56
2021/07/23 05:03:11;;;;;;;22.77;13.33;;;14.60;99.90;;;;;;5009485;28;21639;-58
2021/07/23 05:05:43;;;;;;;23.50;12.37;;;14.70;99.90;;;;;;4991025;28;20424;-57
2021/07/23 05:08:12;;;;;;;26.10;14.33;;;14.70;99.90;;;;;;5007931;28;20455;-57
2021/07/23 05:10:40;;;;;;;23.97;14.17;;;14.80;99.90;;;;;;5001133;28;20455;-57
2021/07/23 05:13:15;;;;;;;22.77;12.50;;;14.90;99.90;;;;;;5001176;28;20824;-57
2021/07/23 05:15:41;;;;;;;23.57;13.53;;;14.90;99.90;;;;;;4999761;28;20470;-58
2021/07/23 05:18:11;;;;;;;20.90;12.60;;;15.00;99.90;;;;;;5008786;28;20443;-58
2021/07/23 05:20:38;;;;;;;29.63;14.33;;;15.00;99.90;;;;;;5010170;28;20448;-57
2021/07/23 05:23:04;;;;;;;21.73;14.47;;;15.00;99.90;;;;;;5010979;28;20551;-57
2021/07/23 05:25:31;;;;;;;23.73;13.57;;;15.10;99.90;;;;;;5009547;28;20466;-56
2021/07/23 05:27:57;;;;;;;24.17;14.47;;;15.10;99.90;;;;;;5007288;28;20234;-57
2021/07/23 05:30:22;;;;;;;21.80;13.70;;;15.20;99.90;;;;;;5004600;28;21047;-56
2021/07/23 05:32:48;;;;;;;21.73;13.57;;;15.20;99.90;;;;;;4990866;28;20588;-57
2021/07/23 05:35:14;;;;;;;27.00;13.63;;;15.30;99.90;;;;;;4990679;28;20187;-56
2021/07/23 05:37:39;;;;;;;30.50;14.00;;;15.40;99.90;;;;;;5027738;23;20590;-54
2021/07/23 05:40:06;;;;;;;24.47;13.70;;;15.40;99.90;;;;;;5005587;28;20353;-54
2021/07/23 05:42:32;;;;;;;27.60;13.50;;;15.50;99.90;;;;;;5002670;28;20232;-54
2021/07/23 05:44:57;;;;;;;31.57;14.47;;;15.60;99.90;;;;;;5026329;28;20876;-53
2021/07/23 05:47:23;;;;;;;24.13;14.70;;;15.70;99.90;;;;;;5002884;28;20543;-53
2021/07/23 05:49:49;;;;;;;22.50;14.10;;;15.70;99.90;;;;;;4989063;28;20447;-54
2021/07/23 05:52:14;;;;;;;23.93;14.40;;;15.80;99.90;;;;;;4988474;28;20169;-54
2021/07/23 05:54:40;;;;;;;23.63;13.23;;;15.80;99.90;;;;;;4987747;28;20272;-54
2021/07/23 05:57:06;;;;;;;21.07;12.77;;;15.90;99.90;;;;;;5007322;28;20287;-53
2021/07/23 05:59:32;;;;;;;25.53;15.33;;;16.00;99.90;;;;;;5008353;28;20870;-54
2021/07/23 06:02:00;;;;;;;27.43;13.97;;;16.10;99.90;;;;;;5007349;28;20260;-53
2021/07/23 06:04:25;;;;;;;25.53;15.33;;;16.20;99.90;;;;;;5000185;28;20470;-54
2021/07/23 06:06:51;;;;;;;24.90;14.30;;;16.30;99.90;;;;;;5006262;28;21040;-54
2021/07/23 06:09:16;;;;;;;22.03;13.50;;;16.40;99.90;;;;;;5007760;28;20251;-54
2021/07/23 06:11:42;;;;;;;25.43;15.23;;;16.50;99.90;;;;;;5007481;28;20173;-53
2021/07/23 06:14:08;;;;;;;27.20;16.93;;;16.50;99.90;;;;;;5005940;28;20179;-54
2021/07/23 06:16:34;;;;;;;28.23;16.40;;;16.60;99.90;;;;;;4990472;28;20196;-54
2021/07/23 06:19:00;;;;;;;30.87;17.17;;;16.70;99.90;;;;;;5007855;28;20473;-54
2021/07/23 06:21:27;;;;;;;27.87;18.20;;;16.80;99.90;;;;;;5007681;28;20415;-54
2021/07/23 06:23:53;;;;;;;28.97;16.60;;;16.90;99.90;;;;;;5006509;28;20439;-54
2021/07/23 06:26:19;;;;;;;28.90;15.90;;;16.90;99.90;;;;;;5007842;28;20419;-55
2021/07/23 06:28:45;;;;;;;26.60;15.87;;;17.00;99.90;;;;;;5007598;28;20505;-55
2021/07/23 06:31:14;;;;;;;24.50;15.27;;;17.10;99.90;;;;;;5007418;28;20427;-55
2021/07/23 06:33:42;;;;;;;30.27;16.10;;;17.20;99.90;;;;;;5006278;28;20187;-54
2021/07/23 06:36:08;;;;;;;25.70;16.50;;;17.20;99.90;;;;;;5007358;28;20443;-54
2021/07/23 06:38:34;;;;;;;30.30;17.40;;;17.20;99.90;;;;;;5014211;28;20525;-54
2021/07/23 06:41:00;;;;;;;30.47;16.97;;;17.20;99.90;;;;;;5007749;28;20168;-52
2021/07/23 06:43:28;;;;;;;29.67;17.43;;;17.30;99.90;;;;;;5001269;28;20547;-52
2021/07/23 06:45:55;;;;;;;27.00;18.10;;;17.40;99.90;;;;;;4999992;28;20419;-55
2021/07/23 06:48:21;;;;;;;28.60;17.57;;;17.50;99.90;;;;;;5005719;28;20499;-54
2021/07/23 06:50:49;;;;;;;29.03;17.83;;;17.60;99.90;;;;;;5007384;28;20506;-55
2021/07/23 06:53:15;;;;;;;28.70;18.63;;;17.70;99.90;;;;;;5006646;28;20244;-54
2021/07/23 06:55:40;;;;;;;29.60;18.17;;;17.90;99.90;;;;;;5006451;28;20430;-55
2021/07/23 06:58:06;;;;;;;26.90;16.90;;;18.00;99.90;;;;;;5007126;28;20462;-53
2021/07/23 07:00:31;;;;;;;25.20;16.30;;;18.10;99.90;;;;;;5008602;28;20173;-54
2021/07/23 07:02:57;;;;;;;26.83;16.57;;;18.20;99.90;;;;;;5009946;28;20183;-52
2021/07/23 07:05:24;;;;;;;25.23;15.83;;;18.20;99.60;;;;;;5008831;28;20477;-52
2021/07/23 07:07:50;;;;;;;27.60;17.30;;;18.30;99.50;;;;;;5006922;28;20197;-53
2021/07/23 07:10:16;;;;;;;26.10;17.43;;;18.50;99.40;;;;;;5005519;28;20423;-53
2021/07/23 07:12:41;;;;;;;26.43;15.80;;;18.60;99.20;;;;;;5004741;28;20180;-52
2021/07/23 07:15:07;;;;;;;24.80;15.60;;;18.70;98.70;;;;;;5006246;28;20625;-53
2021/07/23 07:17:33;;;;;;;25.10;15.83;;;18.80;97.70;;;;;;5005971;28;20200;-53
2021/07/23 07:19:58;;;;;;;29.80;15.13;;;18.90;98.40;;;;;;5006277;28;20454;-53
2021/07/23 07:22:25;;;;;;;26.43;16.17;;;19.10;98.20;;;;;;5007050;28;20192;-53
2021/07/23 07:24:51;;;;;;;23.10;14.57;;;19.30;97.60;;;;;;5005954;28;20230;-54
2021/07/23 07:27:17;;;;;;;31.53;18.17;;;19.40;96.60;;;;;;5005351;28;20542;-53
2021/07/23 07:29:42;;;;;;;35.37;16.63;;;19.50;95.60;;;;;;4993046;28;20424;-54
2021/07/23 07:32:09;;;;;;;28.13;16.37;;;19.60;95.10;;;;;;5003862;28;20188;-53
2021/07/23 07:34:37;;;;;;;26.00;15.40;;;19.70;94.70;;;;;;5005898;28;20653;-54
2021/07/23 07:37:04;;;;;;;28.83;15.20;;;19.80;94.50;;;;;;5005434;28;20466;-54
2021/07/23 07:39:30;;;;;;;19.77;12.53;;;20.00;93.20;;;;;;5013251;28;20489;-53
2021/07/23 07:41:56;;;;;;;24.83;12.20;;;20.00;90.90;;;;;;5026273;28;20911;-54
2021/07/23 07:44:21;;;;;;;16.33;12.73;;;20.20;90.60;;;;;;5010210;28;20444;-53
2021/07/23 07:46:47;;;;;;;18.17;11.50;;;20.20;87.70;;;;;;5008135;28;20195;-54
2021/07/23 07:49:13;;;;;;;17.50;10.90;;;20.20;85.00;;;;;;5006575;28;20172;-54
2021/07/23 07:51:38;;;;;;;19.23;12.00;;;20.30;86.00;;;;;;5005915;28;20187;-54
2021/07/23 07:54:04;;;;;;;21.30;12.30;;;20.40;86.20;;;;;;5005762;28;20188;-56
2021/07/23 07:56:30;;;;;;;34.83;13.00;;;20.50;86.00;;;;;;5006939;28;20205;-54
2021/07/23 07:58:55;;;;;;;21.60;11.97;;;20.60;87.40;;;;;;5006699;28;20189;-54
2021/07/23 08:01:21;;;;;;;18.40;11.60;;;20.70;89.80;;;;;;5009227;28;20612;-54
2021/07/23 08:03:47;;;;;;;20.17;12.73;;;20.80;90.10;;;;;;5006667;28;20242;-53
2021/07/23 08:06:24;;;;;;;19.57;12.10;;;21.00;90.80;;;;;;5009649;28;20672;-55
2021/07/23 08:08:50;;;;;;;16.40;11.33;;;21.10;90.10;;;;;;5016160;28;20172;-54
2021/07/23 08:11:16;;;;;;;20.07;13.03;;;21.20;87.30;;;;;;5009609;28;20407;-54
2021/07/23 08:13:42;;;;;;;19.30;12.40;;;21.20;81.70;;;;;;5008984;28;20407;-53
2021/07/23 08:16:10;;;;;;;19.60;12.93;;;21.20;82.30;;;;;;5009654;28;20738;-54
2021/07/23 08:18:36;;;;;;;19.73;12.90;;;21.20;83.30;;;;;;5009626;28;20258;-55
2021/07/23 08:21:03;;;;;;;19.67;12.80;;;21.30;84.50;;;;;;5009616;28;20498;-55
2021/07/23 08:23:29;;;;;;;18.17;12.83;;;21.50;84.20;;;;;;5009454;28;20505;-55
2021/07/23 08:25:54;;;;;;;18.63;11.80;;;21.60;85.80;;;;;;5009959;28;20426;-55
2021/07/23 08:28:20;;;;;;;18.43;11.83;;;21.80;85.80;;;;;;5009843;28;20403;-55
2021/07/23 08:30:46;;;;;;;18.30;12.63;;;22.00;83.40;;;;;;5008971;28;20490;-54
2021/07/23 08:33:12;;;;;;;18.13;12.13;;;22.00;82.10;;;;;;5009410;28;20172;-54
2021/07/23 08:35:39;;;;;;;20.57;11.90;;;22.10;81.70;;;;;;5012246;28;20208;-55
2021/07/23 08:38:05;;;;;;;22.33;11.90;;;22.10;81.80;;;;;;5005489;28;20360;-55
2021/07/23 08:40:31;;;;;;;21.33;13.00;;;22.30;82.40;;;;;;5009507;28;20626;-54
2021/07/23 08:42:57;;;;;;;19.90;12.13;;;22.30;82.30;;;;;;5007505;28;20203;-55
2021/07/23 08:45:23;;;;;;;19.10;11.93;;;22.50;82.50;;;;;;5008261;28;20905;-54
2021/07/23 08:47:49;;;;;;;17.53;11.70;;;22.60;81.80;;;;;;5008492;28;20212;-56
2021/07/23 08:50:15;;;;;;;19.23;12.37;;;22.70;76.70;;;;;;5009736;28;20643;-57
2021/07/23 08:52:43;;;;;;;19.27;11.93;;;22.70;74.70;;;;;;5010015;28;20282;-55
2021/07/23 08:55:10;;;;;;;18.87;11.80;;;22.70;76.60;;;;;;5008025;28;20494;-55
2021/07/23 08:57:36;;;;;;;17.13;12.03;;;22.70;76.40;;;;;;5009026;28;20419;-55
2021/07/23 09:00:06;;;;;;;21.33;12.83;;;22.70;73.10;;;;;;5008862;28;20529;-55
2021/07/23 09:03:04;;;;;;;18.93;10.77;;;22.80;74.20;;;;;;5008122;28;20180;-55
2021/07/23 09:05:32;;;;;;;16.30;11.90;;;22.90;71.80;;;;;;5005807;28;20445;-56
2021/07/23 09:08:11;;;;;;;20.00;12.10;;;22.90;68.90;;;;;;5022792;28;20427;-54
2021/07/23 09:10:36;;;;;;;15.70;11.27;;;23.00;69.00;;;;;;5007492;28;20435;-55
2021/07/23 09:13:03;;;;;;;24.57;10.90;;;23.00;68.30;;;;;;5006125;28;20513;-55
2021/07/23 09:15:44;;;;;;;20.90;12.30;;;23.10;69.80;;;;;;5007931;28;20251;-55
2021/07/23 09:18:26;;;;;;;15.60;12.07;;;23.30;72.10;;;;;;5006535;28;20522;-55
2021/07/23 09:20:55;;;;;;;18.00;12.00;;;23.50;73.80;;;;;;5003563;28;20490;-55
2021/07/23 09:23:38;;;;;;;17.73;11.90;;;23.60;70.20;;;;;;5007171;28;20416;-55
2021/07/23 09:26:10;;;;;;;17.13;10.90;;;23.80;70.70;;;;;;5007164;28;20427;-55
2021/07/23 09:28:40;;;;;;;22.63;11.27;;;23.80;63.80;;;;;;5003344;28;20984;-54
2021/07/23 09:31:07;;;;;;;17.13;11.30;;;23.80;59.50;;;;;;5005626;28;20441;-54
2021/07/23 09:33:44;;;;;;;17.03;11.00;;;23.80;61.50;;;;;;4999050;28;20439;-58
2021/07/23 09:36:12;;;;;;;17.53;11.03;;;23.90;63.20;;;;;;5007423;28;21558;-54
2021/07/23 09:38:48;;;;;;;16.00;10.80;;;24.00;61.90;;;;;;5011998;28;20455;-53
2021/07/23 09:41:22;;;;;;;13.10;10.43;;;24.20;63.80;;;;;;5004898;28;20436;-52
2021/07/23 09:44:08;;;;;;;19.27;11.40;;;24.40;64.40;;;;;;4998583;28;20754;-54
2021/07/23 09:46:39;;;;;;;15.50;11.33;;;24.50;62.30;;;;;;5004190;28;20451;-54
2021/07/23 09:49:22;;;;;;;24.00;11.00;;;24.70;61.20;;;;;;5007309;28;20450;-54
2021/07/23 09:51:51;;;;;;;15.77;11.17;;;24.60;58.20;;;;;;5005053;28;22081;-55
2021/07/23 09:54:18;;;;;;;14.60;10.70;;;24.50;58.80;;;;;;5001451;28;20428;-53
2021/07/23 09:56:46;;;;;;;16.90;11.00;;;24.60;60.80;;;;;;5006769;28;20978;-55
2021/07/23 09:59:16;;;;;;;19.70;11.47;;;24.80;62.50;;;;;;5006358;28;20442;-54
2021/07/23 10:01:44;;;;;;;16.37;10.67;;;24.90;61.00;;;;;;5000038;28;20510;-55
2021/07/23 10:04:33;;;;;;;17.27;10.73;;;25.00;60.30;;;;;;5006625;28;20571;-53
2021/07/23 10:07:11;;;;;;;18.03;10.43;;;24.80;57.90;;;;;;4954126;28;20459;-53
2021/07/23 10:09:40;;;;;;;25.73;10.30;;;24.80;59.80;;;;;;4995017;28;20501;-56
2021/07/23 10:12:09;;;;;;;18.13;11.20;;;24.80;59.70;;;;;;4999328;28;20435;-53
2021/07/23 10:14:41;;;;;;;14.00;10.50;;;24.80;60.10;;;;;;5003260;28;20447;-54
2021/07/23 10:17:10;;;;;;;15.27;10.33;;;24.70;60.40;;;;;;5005498;28;20538;-55
2021/07/23 10:19:39;;;;;;;19.17;13.00;;;24.60;59.30;;;;;;5007418;28;20459;-55
2021/07/23 10:22:06;;;;;;;19.40;11.37;;;24.50;60.00;;;;;;5006672;28;20424;-54
2021/07/23 10:24:36;;;;;;;22.10;11.20;;;24.70;62.20;;;;;;5000682;28;21001;-60
2021/07/23 10:27:11;;;;;;;19.67;10.70;;;25.00;61.10;;;;;;5003809;28;20450;-54
2021/07/23 10:29:50;;;;;;;18.70;11.60;;;25.10;58.60;;;;;;5002678;28;20438;-54
2021/07/23 10:32:36;;;;;;;15.43;11.40;;;24.90;59.20;;;;;;5007621;28;20415;-54
2021/07/23 10:35:25;;;;;;;20.17;10.30;;;25.10;59.70;;;;;;4977197;28;20436;-54
2021/07/23 10:37:55;;;;;;;16.63;11.10;;;25.40;58.60;;;;;;5000808;28;20521;-55
2021/07/23 10:40:39;;;;;;;14.33;10.90;;;25.70;58.00;;;;;;5007710;28;20423;-54
2021/07/23 10:43:36;;;;;;;14.67;10.20;;;26.00;57.70;;;;;;4989152;28;20436;-55
2021/07/23 10:46:03;;;;;;;17.10;11.17;;;25.90;56.40;;;;;;4995852;28;20423;-55
2021/07/23 10:48:48;;;;;;;17.07;11.03;;;25.70;54.50;;;;;;5007192;28;20442;-54
2021/07/23 10:52:06;;;;;;;16.57;10.90;;;25.60;54.70;;;;;;5007111;28;20963;-54
2021/07/23 10:55:07;;;;;;;15.57;10.10;;;25.60;55.80;;;;;;4973251;28;20438;-54
2021/07/23 10:57:33;;;;;;;16.33;10.90;;;25.40;56.70;;;;;;5007427;28;20950;-55
2021/07/23 11:00:01;;;;;;;15.60;10.63;;;25.50;56.20;;;;;;5004170;28;20455;-54
2021/07/23 11:02:33;;;;;;;18.43;10.97;;;25.70;57.20;;;;;;5000745;28;20832;-55
2021/07/23 11:05:16;;;;;;;14.40;10.80;;;26.10;57.60;;;;;;4994000;28;20434;-55
2021/07/23 11:07:48;;;;;;;15.50;9.57;;;26.40;56.30;;;;;;4981368;28;20466;-55
2021/07/23 11:10:20;;;;;;;13.27;10.00;;;26.50;55.20;;;;;;5003311;28;20418;-55
2021/07/23 11:12:46;;;;;;;14.67;10.00;;;26.70;53.60;;;;;;5007350;28;20415;-55
2021/07/23 11:15:18;;;;;;;14.20;10.13;;;26.80;50.70;;;;;;5005231;28;20430;-54
2021/07/23 11:17:55;;;;;;;17.77;11.03;;;26.80;50.10;;;;;;5004854;28;20196;-55
2021/07/23 11:20:27;;;;;;;14.17;10.20;;;27.00;50.30;;;;;;5001300;28;20455;-55
2021/07/23 11:22:53;;;;;;;15.10;9.90;;;27.10;50.30;;;;;;4999658;28;20458;-54
2021/07/23 11:25:23;;;;;;;14.40;9.90;;;27.10;49.80;;;;;;4996159;28;20698;-55
2021/07/23 11:27:53;;;;;;;13.70;11.00;;;27.20;48.40;;;;;;5001772;28;20204;-55
2021/07/23 11:30:32;;;;;;;18.13;11.30;;;27.30;49.30;;;;;;5005081;28;20415;-55
2021/07/23 11:33:00;;;;;;;18.00;11.20;;;27.40;49.00;;;;;;4998522;28;20438;-54
2021/07/23 11:35:31;;;;;;;18.60;10.47;;;27.50;48.90;;;;;;5020279;28;20514;-55
2021/07/23 11:37:58;;;;;;;15.87;10.60;;;27.60;49.70;;;;;;5010905;28;20443;-55
2021/07/23 11:40:25;;;;;;;17.10;9.60;;;27.70;49.50;;;;;;5041113;23;20497;-56
2021/07/23 11:42:54;;;;;;;13.57;9.57;;;27.80;50.00;;;;;;5020626;28;20427;-59
2021/07/23 11:45:21;;;;;;;13.65;10.60;;;28.00;50.40;;;;;;5024808;28;20516;-55
2021/07/23 11:47:56;;;;;;;19.37;9.90;;;28.10;48.10;;;;;;5026617;28;20171;-58
2021/07/23 11:50:32;;;;;;;14.90;9.40;;;28.10;48.40;;;;;;5025067;28;20285;-57
2021/07/23 11:53:03;;;;;;;16.63;9.30;;;28.20;46.00;;;;;;5025096;28;20638;-57
2021/07/23 11:55:42;;;;;;;13.87;8.90;;;28.40;47.50;;;;;;5020711;28;20237;-57
2021/07/23 11:58:08;;;;;;;13.87;7.63;;;28.50;44.70;;;;;;5017971;28;20656;-59
2021/07/23 12:00:37;;;;;;;10.90;8.13;;;28.50;42.00;;;;;;5021718;28;20221;-57
2021/07/23 12:03:18;;;;;;;10.73;8.10;;;28.40;41.60;;;;;;5021168;28;20273;-57
2021/07/23 12:05:47;;;;;;;12.47;8.90;;;28.40;43.50;;;;;;5026524;28;20218;-56
2021/07/23 12:08:16;;;;;;;13.33;8.53;;;28.50;41.50;;;;;;5026958;28;20175;-58
2021/07/23 12:10:43;;;;;;;11.73;8.97;;;28.60;43.20;;;;;;5021274;28;20203;-58
2021/07/23 12:13:10;;;;;;;15.83;8.67;;;28.90;46.30;;;;;;5020149;28;20225;-57
2021/07/23 12:15:44;;;;;;;12.13;9.40;;;29.00;43.20;;;;;;5019698;28;20183;-57
2021/07/23 12:18:18;;;;;;;14.00;9.33;;;29.10;43.50;;;;;;5012868;28;20203;-58
2021/07/23 12:20:44;;;;;;;15.83;8.83;;;29.20;44.80;;;;;;5025808;28;20227;-58
2021/07/23 12:23:10;;;;;;;11.70;8.83;;;29.40;43.80;;;;;;5017498;28;20239;-61
2021/07/23 12:25:44;;;;;;;15.93;9.13;;;29.60;44.50;;;;;;5026776;28;20592;-59
2021/07/23 12:28:13;;;;;;;12.63;9.07;;;29.80;43.60;;;;;;5030245;28;20175;-59
2021/07/23 12:30:40;;;;;;;13.65;9.23;;;29.80;39.60;;;;;;5030373;28;20199;-58
2021/07/23 12:33:29;;;;;;;13.55;9.77;;;29.70;40.90;;;;;;5020024;28;20179;-58